Time;durP1;ratioP1;P1;durP2;ratioP2;P2;SDS_P1;SDS_P2;PMS_P1;PMS_P2;Temp;Humidity;BMP_temperature;BMP_pressure;BME280_temperature;BME280_humidity;BME280_pressure;Samples;Min_cycle;Max_cycle;Signal;HPM_P1;HPM_P2
2023/07/06 00:01:37;;;;;;;4.47;2.87;;;;;;;21.70;90.47;99723.09;6348762;28;20108;-70
2023/07/06 00:04:38;;;;;;;5.95;3.05;;;;;;;21.69;91.81;99726.78;6331254;28;20052;-73
2023/07/06 00:07:39;;;;;;;4.95;3.03;;;;;;;21.80;91.24;99723.72;6330728;28;20188;-70
2023/07/06 00:10:42;;;;;;;4.70;3.00;;;;;;;21.81;91.14;99730.69;6330896;28;20055;-70
2023/07/06 00:13:45;;;;;;;5.80;3.13;;;;;;;21.81;93.13;99725.38;6330374;28;20101;-70
2023/07/06 00:16:47;;;;;;;4.90;2.42;;;;;;;21.82;94.09;99728.88;6349241;28;20131;-74
2023/07/06 00:19:48;;;;;;;5.68;2.47;;;;;;;21.79;94.18;99723.91;6349177;28;20055;-70
2023/07/06 00:22:49;;;;;;;5.27;3.00;;;;;;;21.79;92.40;99723.91;6329952;28;20064;-70
2023/07/06 00:25:50;;;;;;;4.40;2.53;;;;;;;21.76;92.09;99719.75;6348385;28;20048;-70
2023/07/06 00:28:53;;;;;;;7.85;3.00;;;;;;;21.83;91.46;99718.06;6348301;28;20415;-70
2023/07/06 00:32:04;;;;;;;4.22;3.13;;;;;;;21.77;92.13;99707.34;6348015;28;20434;-70
2023/07/06 00:35:05;;;;;;;5.05;3.22;;;;;;;21.77;91.03;99704.69;6348112;28;20054;-74
2023/07/06 00:38:13;;;;;;;5.10;2.80;;;;;;;21.73;91.34;99698.88;6348347;28;20050;-74
2023/07/06 00:41:16;;;;;;;3.83;3.00;;;;;;;21.70;93.56;99692.09;6330653;28;20055;-73
2023/07/06 00:44:58;;;;;;;5.80;3.22;;;;;;;21.75;92.53;99688.09;6348199;28;20411;-74
2023/07/06 00:47:59;;;;;;;8.00;3.30;;;;;;;21.71;92.17;99691.09;6347537;28;20047;-70
2023/07/06 00:51:09;;;;;;;;;;;;;;;21.61;91.77;99702.94;6348159;28;20134;-70
2023/07/06 00:54:18;;;;;;;4.80;2.97;;;;;;;21.64;90.83;99694.59;6348954;28;19919;-74
2023/07/06 00:57:21;;;;;;;4.38;3.00;;;;;;;21.59;93.54;99695.13;6330010;28;20105;-74
2023/07/06 01:00:22;;;;;;;6.45;3.10;;;;;;;21.55;93.82;99687.69;6329323;28;20066;-73
2023/07/06 01:03:23;;;;;;;5.93;2.93;;;;;;;21.47;93.19;99696.50;6329369;28;20055;-71
2023/07/06 01:06:34;;;;;;;4.63;3.38;;;;;;;21.40;92.29;99691.03;6347980;28;20118;-73
2023/07/06 01:09:37;;;;;;;7.95;3.63;;;;;;;21.41;92.52;99695.34;6347923;28;20047;-70
2023/07/06 01:12:38;;;;;;;4.75;3.05;;;;;;;21.38;92.96;99695.69;6329701;28;20058;-73
2023/07/06 01:15:47;;;;;;;6.32;3.50;;;;;;;21.28;93.62;99697.72;6329895;28;20043;-70
2023/07/06 01:19:03;;;;;;;4.38;2.97;;;;;;;21.29;94.60;99704.66;6347179;28;20487;-74
2023/07/06 01:22:41;;;;;;;5.90;3.65;;;;;;;21.32;94.80;99707.00;6329371;28;20155;-70
2023/07/06 01:26:18;;;;;;;4.88;3.03;;;;;;;21.37;94.58;99698.50;6346813;28;20083;-74
2023/07/06 01:29:31;;;;;;;4.32;3.17;;;;;;;21.30;95.38;99707.16;6347354;28;20056;-73
2023/07/06 01:32:41;;;;;;;8.07;3.20;;;;;;;21.24;96.20;99697.22;6329182;28;20087;-73
2023/07/06 01:36:00;;;;;;;7.25;3.58;;;;;;;21.20;95.75;99700.41;6328809;28;20436;-70
2023/07/06 01:39:22;;;;;;;4.82;3.17;;;;;;;21.18;96.80;99705.88;6347526;28;20089;-74
2023/07/06 01:42:27;;;;;;;5.80;3.53;;;;;;;21.19;96.98;99701.38;6347657;28;20134;-71
2023/07/06 01:45:29;;;;;;;4.38;3.17;;;;;;;21.19;97.09;99707.53;6328949;28;20127;-70
2023/07/06 01:48:30;;;;;;;5.35;3.60;;;;;;;21.18;97.43;99703.22;6328548;28;20066;-70
2023/07/06 01:51:48;;;;;;;6.50;4.03;;;;;;;21.18;98.51;99700.56;6349077;28;20043;-70
2023/07/06 01:54:54;;;;;;;5.80;3.70;;;;;;;21.21;98.29;99702.91;6350943;28;21060;-70
2023/07/06 01:58:07;;;;;;;5.30;3.45;;;;;;;21.21;97.84;99708.19;6334373;28;20062;-71
2023/07/06 02:01:13;;;;;;;6.32;3.65;;;;;;;21.18;98.10;99697.91;6352251;28;20388;-73
2023/07/06 02:04:20;;;;;;;5.68;3.50;;;;;;;21.12;98.84;99691.47;6334060;28;20067;-73
2023/07/06 02:07:23;;;;;;;5.90;3.97;;;;;;;21.00;100.00;99692.00;6351792;28;20073;-73
2023/07/06 02:10:24;;;;;;;5.93;3.80;;;;;;;20.99;100.00;99700.97;6352013;28;20047;-73
2023/07/06 02:13:25;;;;;;;5.40;3.80;;;;;;;20.98;100.00;99707.25;6333636;28;20099;-71
2023/07/06 02:16:26;;;;;;;5.03;3.17;;;;;;;20.93;100.00;99703.28;6333958;28;20047;-73
2023/07/06 02:19:26;;;;;;;4.93;3.60;;;;;;;20.87;100.00;99698.66;6351748;28;20113;-70
2023/07/06 02:22:28;;;;;;;6.57;3.90;;;;;;;20.92;100.00;99698.19;6351258;28;20047;-70
2023/07/06 02:25:28;;;;;;;4.68;3.35;;;;;;;20.87;100.00;99693.34;6333391;28;20500;-70
2023/07/06 02:28:29;;;;;;;5.37;3.50;;;;;;;20.77;100.00;99695.38;6351698;28;20078;-73
2023/07/06 02:31:34;;;;;;;8.43;4.10;;;;;;;20.75;100.00;99701.84;6333061;28;20055;-73
2023/07/06 02:34:36;;;;;;;5.78;3.80;;;;;;;20.63;100.00;99715.44;6333233;28;20102;-74
2023/07/06 02:37:39;;;;;;;5.15;3.50;;;;;;;20.26;100.00;99740.59;6351314;28;20043;-73
2023/07/06 02:40:42;;;;;;;5.57;3.38;;;;;;;20.21;100.00;99753.47;6351704;28;20052;-73
2023/07/06 02:43:43;;;;;;;4.82;3.45;;;;;;;20.25;100.00;99760.09;6351469;28;20043;-73
2023/07/06 02:46:44;;;;;;;5.47;3.55;;;;;;;20.11;100.00;99761.56;6332855;28;20050;-70
2023/07/06 02:49:44;;;;;;;7.90;3.67;;;;;;;20.20;100.00;99754.47;6332676;28;20044;-73
2023/07/06 02:52:45;;;;;;;5.33;3.67;;;;;;;20.26;100.00;99751.19;6332620;28;20055;-70
2023/07/06 02:55:51;;;;;;;5.97;3.40;;;;;;;20.39;100.00;99771.88;6332182;28;20043;-70
2023/07/06 02:58:53;;;;;;;4.68;3.20;;;;;;;20.38;100.00;99772.88;6331968;28;20096;-70
2023/07/06 03:01:53;;;;;;;6.43;3.53;;;;;;;20.42;100.00;99760.94;6350602;28;20060;-70
2023/07/06 03:04:54;;;;;;;4.77;3.57;;;;;;;20.47;100.00;99757.81;6331730;28;20139;-73
2023/07/06 03:07:55;;;;;;;4.53;3.00;;;;;;;20.50;100.00;99760.94;6349998;28;20052;-70
2023/07/06 03:10:55;;;;;;;4.10;2.97;;;;;;;20.54;100.00;99774.72;6350068;28;20387;-70
2023/07/06 03:13:56;;;;;;;6.93;3.47;;;;;;;20.44;100.00;99760.78;6332134;28;20133;-72
2023/07/06 03:16:57;;;;;;;5.10;3.60;;;;;;;20.53;100.00;99763.28;6350497;28;20082;-73
2023/07/06 03:19:58;;;;;;;6.20;3.47;;;;;;;20.54;100.00;99764.94;6350397;28;20476;-70
2023/07/06 03:22:58;;;;;;;4.93;3.00;;;;;;;20.71;100.00;99759.66;6350868;28;20051;-73
2023/07/06 03:26:01;;;;;;;7.17;3.30;;;;;;;20.73;100.00;99753.22;6350294;28;20043;-73
2023/07/06 03:29:04;;;;;;;4.15;2.88;;;;;;;20.71;99.77;99744.59;6350882;28;20143;-73
2023/07/06 03:32:06;;;;;;;;;;;;;;;20.74;99.22;99754.03;6332185;28;20054;-73
2023/07/06 03:35:09;;;;;;;4.80;3.03;;;;;;;20.78;100.00;99751.88;6350185;28;19920;-74
2023/07/06 03:38:12;;;;;;;3.65;2.60;;;;;;;20.82;100.00;99754.03;6350398;28;20133;-74
2023/07/06 03:41:13;;;;;;;5.03;3.15;;;;;;;20.90;100.00;99748.72;6331751;28;20043;-71
2023/07/06 03:44:14;;;;;;;5.43;3.55;;;;;;;20.92;100.00;99753.88;6330901;28;20139;-70
2023/07/06 03:47:15;;;;;;;5.40;3.50;;;;;;;20.92;100.00;99757.34;6329871;28;20075;-70
2023/07/06 03:50:18;;;;;;;6.93;3.17;;;;;;;20.99;99.60;99762.78;6330674;28;20050;-73
2023/07/06 03:53:19;;;;;;;4.60;3.20;;;;;;;21.02;100.00;99758.97;6332059;28;20089;-74
2023/07/06 03:56:27;;;;;;;4.32;3.25;;;;;;;21.03;100.00;99764.09;6332066;28;20043;-74
2023/07/06 03:59:31;;;;;;;6.22;3.13;;;;;;;20.99;100.00;99761.97;6349319;28;20048;-70
2023/07/06 04:02:32;;;;;;;4.50;2.97;;;;;;;20.85;100.00;99766.94;6330463;28;20146;-70
2023/07/06 04:05:37;;;;;;;6.90;3.20;;;;;;;20.78;99.95;99765.16;6349746;28;20047;-74
2023/07/06 04:08:37;;;;;;;5.95;3.40;;;;;;;20.83;100.00;99768.13;6330877;28;20153;-74
2023/07/06 04:11:38;;;;;;;4.27;3.00;;;;;;;20.91;99.18;99768.09;6330619;28;20487;-70
2023/07/06 04:14:39;;;;;;;4.83;2.97;;;;;;;20.94;99.32;99775.75;6330542;28;20047;-73
2023/07/06 04:17:42;;;;;;;5.63;3.10;;;;;;;20.97;99.47;99772.75;6348475;28;20083;-70
2023/07/06 04:20:44;;;;;;;6.22;3.15;;;;;;;21.01;97.20;99775.88;6330020;28;20062;-70
2023/07/06 04:23:49;;;;;;;4.43;2.80;;;;;;;21.12;98.19;99770.22;6348130;28;20068;-70
2023/07/06 04:26:51;;;;;;;4.53;3.20;;;;;;;21.20;99.03;99772.84;6329937;28;20040;-74
2023/07/06 04:29:51;;;;;;;7.35;3.30;;;;;;;21.21;100.00;99776.34;6348199;28;21023;-70
2023/07/06 04:32:53;;;;;;;6.13;3.13;;;;;;;21.30;98.16;99783.28;6348294;28;20051;-73
2023/07/06 04:35:53;;;;;;;3.75;3.05;;;;;;;21.29;97.56;99781.63;6348223;28;20364;-69
2023/07/06 04:38:54;;;;;;;4.70;3.23;;;;;;;21.39;97.36;99784.91;6329940;28;20056;-70
2023/07/06 04:41:55;;;;;;;7.63;3.73;;;;;;;21.59;97.38;99777.41;6348742;28;20132;-73
2023/07/06 04:44:55;;;;;;;7.97;3.53;;;;;;;21.68;97.06;99786.19;6329986;28;20043;-70
2023/07/06 04:48:00;;;;;;;4.03;3.07;;;;;;;21.75;97.99;99781.84;6348467;28;20130;-70
2023/07/06 04:51:01;;;;;;;5.25;3.15;;;;;;;21.87;96.53;99784.97;6329632;28;20105;-70
2023/07/06 04:54:03;;;;;;;6.35;3.33;;;;;;;21.93;95.84;99786.91;6347988;28;20087;-71
2023/07/06 04:57:04;;;;;;;4.28;3.28;;;;;;;22.05;95.67;99780.22;6347612;28;20410;-73
2023/07/06 05:00:16;;;;;;;5.13;3.63;;;;;;;22.16;94.19;99778.97;6329164;28;20062;-69
2023/07/06 05:03:16;;;;;;;5.15;3.72;;;;;;;22.25;94.04;99777.13;6346487;28;20291;-70
2023/07/06 05:06:19;;;;;;;7.43;4.00;;;;;;;22.30;93.31;99790.72;6346538;28;20051;-71
2023/07/06 05:09:20;;;;;;;5.78;3.97;;;;;;;22.39;94.29;99794.16;6346697;28;20043;-71
2023/07/06 05:12:20;;;;;;;5.73;3.87;;;;;;;22.50;95.19;99793.72;6328408;28;20047;-71
2023/07/06 05:15:22;;;;;;;4.67;3.70;;;;;;;22.53;95.05;99793.38;6328509;28;20048;-70
2023/07/06 05:18:23;;;;;;;5.65;3.28;;;;;;;22.63;93.82;99801.94;6328213;28;20074;-70
2023/07/06 05:21:24;;;;;;;11.23;3.50;;;;;;;22.76;95.17;99784.56;6346590;28;20051;-72
2023/07/06 05:24:25;;;;;;;5.28;3.30;;;;;;;22.91;92.40;99790.75;6346404;28;20071;-72
2023/07/06 05:27:26;;;;;;;5.73;3.60;;;;;;;22.99;91.74;99787.19;6327560;28;20411;-72
2023/07/06 05:30:27;;;;;;;5.73;3.47;;;;;;;23.08;88.70;99778.97;6328192;28;20150;-71
2023/07/06 05:33:29;;;;;;;5.75;3.40;;;;;;;23.22;88.12;99785.31;6328004;28;20051;-71
2023/07/06 05:36:30;;;;;;;5.55;3.38;;;;;;;23.43;88.62;99789.09;6346247;28;20040;-71
2023/07/06 05:39:30;;;;;;;4.50;3.37;;;;;;;23.43;86.04;99791.75;6327901;28;20052;-72
2023/07/06 05:42:32;;;;;;;5.37;3.40;;;;;;;23.66;84.83;99787.16;6328363;28;20471;-72
2023/07/06 05:45:32;;;;;;;6.05;3.47;;;;;;;23.73;86.71;99797.91;6346502;28;20062;-71
2023/07/06 05:48:34;;;;;;;7.43;4.03;;;;;;;23.79;86.34;99793.69;6328031;28;20040;-72
2023/07/06 05:51:35;;;;;;;4.07;3.28;;;;;;;23.92;85.26;99804.50;6346408;28;20051;-72
2023/07/06 05:54:35;;;;;;;6.00;3.93;;;;;;;24.04;86.44;99802.19;6328104;28;20074;-72
2023/07/06 05:57:38;;;;;;;4.50;3.53;;;;;;;24.19;87.38;99800.31;6328033;28;20051;-71
2023/07/06 06:00:40;;;;;;;6.03;3.58;;;;;;;24.37;85.20;99802.56;6327743;28;20055;-72
2023/07/06 06:03:40;;;;;;;6.30;3.83;;;;;;;24.51;85.28;99808.88;6327871;28;20056;-71
2023/07/06 06:06:49;;;;;;;6.00;4.07;;;;;;;24.63;83.66;99809.22;6345627;28;20047;-71
2023/07/06 06:09:50;;;;;;;9.95;3.60;;;;;;;24.73;80.05;99810.53;6345930;28;20052;-72
2023/07/06 06:12:51;;;;;;;4.97;3.33;;;;;;;24.86;80.84;99804.47;6327701;28;20040;-71
2023/07/06 06:15:54;;;;;;;5.80;3.30;;;;;;;25.01;80.07;99808.91;6327923;28;20052;-70
2023/07/06 06:18:57;;;;;;;5.93;3.60;;;;;;;25.19;77.88;99800.41;6345616;28;20162;-72
2023/07/06 06:22:02;;;;;;;7.75;3.50;;;;;;;25.40;78.39;99800.38;6345975;28;20092;-70
2023/07/06 06:25:04;;;;;;;5.53;3.05;;;;;;;25.57;77.98;99803.53;6345623;28;20574;-72
2023/07/06 06:28:09;;;;;;;4.32;3.17;;;;;;;25.80;75.32;99807.75;6345895;28;20048;-71
2023/07/06 06:31:12;;;;;;;4.53;3.40;;;;;;;26.00;75.18;99806.00;6345651;28;20054;-72
2023/07/06 06:34:12;;;;;;;3.25;2.65;;;;;;;26.22;72.51;99797.88;6345492;28;20483;-70
2023/07/06 06:37:16;;;;;;;4.77;3.23;;;;;;;26.29;70.32;99798.69;6328324;28;20044;-70
2023/07/06 06:40:19;;;;;;;6.47;3.08;;;;;;;26.48;71.70;99797.94;6331058;28;20526;-70
2023/07/06 06:43:20;;;;;;;4.07;2.78;;;;;;;26.44;67.68;99793.16;6349016;28;20075;-70
2023/07/06 06:46:23;;;;;;;4.90;2.90;;;;;;;26.50;65.45;99795.88;6349387;28;20065;-70
2023/07/06 06:49:29;;;;;;;6.15;3.00;;;;;;;26.76;65.58;99796.13;6330833;28;20371;-70
2023/07/06 06:52:32;;;;;;;8.60;3.05;;;;;;;26.95;68.30;99795.28;6349719;28;20087;-71
2023/07/06 07:08:22;;;;;;;6.13;3.63;;;;;;;27.52;64.01;99799.13;6394751;27;20373;-70
2023/07/06 07:11:24;;;;;;;4.32;3.20;;;;;;;27.80;65.62;99795.34;6393739;27;20516;-70
2023/07/06 07:14:24;;;;;;;7.45;3.47;;;;;;;27.97;63.76;99805.59;6394518;27;20047;-70
2023/07/06 07:17:27;;;;;;;4.82;3.38;;;;;;;28.00;62.29;99802.47;6393380;27;20054;-70
2023/07/06 07:20:27;;;;;;;4.38;3.05;;;;;;;27.96;62.10;99801.28;6393412;27;20047;-70
2023/07/06 07:23:42;;;;;;;3.60;2.75;;;;;;;28.02;62.29;99800.41;6394682;27;20061;-70
2023/07/06 07:26:44;;;;;;;4.38;3.10;;;;;;;28.22;59.57;99805.69;6394479;27;20049;-70
2023/07/06 07:29:47;;;;;;;5.40;3.33;;;;;;;28.33;58.98;99804.97;6393399;27;20050;-70
2023/07/06 07:32:49;;;;;;;4.22;3.13;;;;;;;28.42;61.72;99801.03;6394118;27;20051;-70
2023/07/06 07:35:51;;;;;;;4.82;3.05;;;;;;;28.62;61.38;99795.53;6393200;27;20089;-70
2023/07/06 07:38:53;;;;;;;3.88;2.70;;;;;;;28.94;61.36;99807.03;6393065;27;20130;-70
2023/07/06 07:41:58;;;;;;;3.45;2.70;;;;;;;28.63;58.18;99807.09;6392765;27;20099;-70
2023/07/06 07:44:59;;;;;;;6.30;3.15;;;;;;;28.89;60.96;99814.09;6392787;27;20054;-70
2023/07/06 07:47:59;;;;;;;4.25;2.95;;;;;;;29.08;59.73;99802.38;6394028;27;20051;-68
2023/07/06 07:51:06;;;;;;;5.20;2.92;;;;;;;28.98;59.41;99814.66;6394037;27;20130;-68
2023/07/06 07:54:06;;;;;;;4.28;2.88;;;;;;;29.00;57.56;99816.09;6392363;27;20062;-68
2023/07/06 07:57:07;;;;;;;3.00;2.47;;;;;;;29.04;56.82;99819.16;6393640;27;20051;-68
2023/07/06 08:00:10;;;;;;;5.13;3.03;;;;;;;29.51;58.23;99812.31;6393575;27;20581;-70
2023/07/06 08:03:11;;;;;;;7.97;3.28;;;;;;;29.63;56.56;99808.84;6394007;27;20051;-70
2023/07/06 08:06:14;;;;;;;5.38;2.95;;;;;;;29.89;56.51;99813.94;6391358;27;20543;-70
2023/07/06 08:09:15;;;;;;;5.20;3.30;;;;;;;30.06;55.33;99808.78;6374013;27;20047;-68
2023/07/06 08:12:15;;;;;;;4.25;2.90;;;;;;;29.93;55.98;99814.31;6373763;27;20131;-68
2023/07/06 08:15:16;;;;;;;3.55;2.90;;;;;;;29.90;58.34;99812.09;6374669;27;20061;-68
2023/07/06 08:18:17;;;;;;;4.63;3.17;;;;;;;29.92;58.69;99818.88;6373543;27;20051;-68
2023/07/06 08:21:19;;;;;;;5.05;2.67;;;;;;;30.12;56.43;99815.94;6373361;27;20047;-68
2023/07/06 08:24:19;;;;;;;3.90;3.00;;;;;;;29.98;55.66;99810.94;6373513;27;20490;-68
2023/07/06 08:27:20;;;;;;;5.03;2.75;;;;;;;29.69;55.67;99814.19;6373580;27;20058;-68
2023/07/06 08:30:21;;;;;;;4.30;3.13;;;;;;;30.22;56.78;99812.69;6374566;27;20116;-68
2023/07/06 08:33:22;;;;;;;3.72;3.05;;;;;;;30.28;53.41;99809.06;6372909;27;20055;-68
2023/07/06 08:36:23;;;;;;;5.57;3.33;;;;;;;30.14;53.71;99813.00;6373282;27;20039;-68
2023/07/06 08:39:24;;;;;;;5.72;3.15;;;;;;;30.67;51.33;99804.19;6374376;27;20051;-68
2023/07/06 08:42:25;;;;;;;3.92;2.95;;;;;;;30.78;51.09;99799.03;6373641;27;20150;-68
2023/07/06 08:45:39;;;;;;;5.30;2.83;;;;;;;30.69;52.81;99799.38;6374685;27;20134;-68
2023/07/06 08:48:41;;;;;;;6.82;3.15;;;;;;;31.05;52.87;99799.44;6372950;27;20051;-68
2023/07/06 08:51:42;;;;;;;5.93;3.22;;;;;;;31.28;50.64;99790.53;6374721;27;20054;-68
2023/07/06 08:54:49;;;;;;;3.88;3.13;;;;;;;31.26;52.02;99798.03;6372443;27;20058;-68
2023/07/06 08:57:50;;;;;;;5.20;3.25;;;;;;;31.66;46.27;99791.88;6373347;27;20043;-68
2023/07/06 09:00:59;;;;;;;5.85;2.90;;;;;;;31.80;47.48;99793.25;6372996;27;20043;-68
2023/07/06 09:04:08;;;;;;;4.22;3.05;;;;;;;31.80;46.13;99792.44;6372769;27;20074;-68
2023/07/06 09:07:13;;;;;;;4.28;2.80;;;;;;;30.36;48.34;99791.00;6372639;27;20095;-68
2023/07/06 09:10:15;;;;;;;4.20;3.00;;;;;;;29.89;53.92;99794.31;6373143;27;20051;-68
2023/07/06 09:13:25;;;;;;;5.30;2.53;;;;;;;29.74;53.58;99786.63;6372655;27;20520;-69
2023/07/06 09:16:30;;;;;;;4.05;2.88;;;;;;;29.66;53.50;99785.03;6374103;27;20091;-68
2023/07/06 09:19:32;;;;;;;3.38;2.83;;;;;;;29.52;53.65;99789.75;6372701;27;20047;-68
2023/07/06 09:22:32;;;;;;;6.20;3.00;;;;;;;29.51;53.74;99793.50;6372064;27;20111;-68
2023/07/06 09:25:38;;;;;;;4.88;3.20;;;;;;;29.64;56.80;99778.25;6372479;27;20490;-69
2023/07/06 09:28:39;;;;;;;4.10;2.90;;;;;;;29.41;57.86;99782.44;6371900;27;20043;-68
2023/07/06 09:31:41;;;;;;;4.40;2.78;;;;;;;29.12;58.91;99784.00;6372268;27;20391;-69
2023/07/06 09:34:46;;;;;;;5.00;3.28;;;;;;;29.05;60.20;99770.56;6372420;27;20097;-68
2023/07/06 09:37:48;;;;;;;4.53;2.92;;;;;;;28.97;58.64;99784.28;6373268;27;20043;-68
2023/07/06 09:40:50;;;;;;;4.57;2.88;;;;;;;29.55;57.24;99791.19;6372416;27;20055;-68
2023/07/06 09:43:57;;;;;;;;;;;;;;;30.64;55.95;99796.56;6373048;27;20498;-68
2023/07/06 09:46:59;;;;;;;3.53;2.55;;;;;;;31.58;53.33;99797.66;6371796;27;19934;-69
2023/07/06 09:50:20;;;;;;;7.68;2.60;;;;;;;31.88;50.44;99792.06;6370935;27;20554;-68
2023/07/06 09:53:28;;;;;;;3.58;2.70;;;;;;;31.88;50.56;99779.38;6372433;27;20051;-68
2023/07/06 09:56:29;;;;;;;4.30;2.88;;;;;;;32.61;49.81;99781.53;6370310;27;20043;-68
2023/07/06 09:59:30;;;;;;;4.65;2.70;;;;;;;32.28;49.15;99780.41;6371270;27;20490;-69
2023/07/06 10:02:31;;;;;;;;;;;;;;;32.51;50.16;99782.13;6372601;27;20061;-68
2023/07/06 10:05:34;;;;;;;7.60;3.03;;;;;;;32.13;49.27;99810.63;6371607;27;20020;-68
2023/07/06 10:08:46;;;;;;;6.13;3.50;;;;;;;30.09;53.50;99845.16;6370654;27;20333;-68
2023/07/06 10:11:51;;;;;;;7.47;3.58;;;;;;;26.81;62.06;99839.97;6370034;27;20154;-68
2023/07/06 10:14:53;;;;;;;13.25;4.07;;;;;;;25.42;70.83;99814.34;6370009;27;20055;-68
2023/07/06 10:18:15;;;;;;;14.15;3.95;;;;;;;24.36;79.57;99798.25;6371665;27;20035;-69
2023/07/06 10:21:19;;;;;;;13.40;3.58;;;;;;;23.44;89.99;99826.19;6370819;27;20050;-70
2023/07/06 10:24:38;;;;;;;7.18;3.88;;;;;;;23.20;100.00;99843.22;6371242;27;20047;-72
2023/07/06 10:27:45;;;;;;;7.68;3.53;;;;;;;22.92;100.00;99862.38;6371283;27;20043;-70
2023/07/06 10:30:52;;;;;;;7.50;3.33;;;;;;;22.68;100.00;99889.97;6369915;27;20487;-71
2023/07/06 10:34:28;;;;;;;4.60;2.25;;;;;;;22.13;100.00;99897.06;6371212;27;20099;-72
2023/07/06 10:37:34;;;;;;;2.60;1.85;;;;;;;21.87;100.00;99877.91;6358118;27;20043;-73
2023/07/06 10:40:37;;;;;;;5.13;1.98;;;;;;;21.11;100.00;99890.59;6371137;27;20486;-72
2023/07/06 10:43:48;;;;;;;6.57;1.25;;;;;;;21.18;100.00;99896.06;6370888;27;20417;-72
2023/07/06 10:46:58;;;;;;;3.08;1.33;;;;;;;20.92;100.00;99923.59;6370193;27;20046;-74
2023/07/06 10:50:05;;;;;;;7.07;2.60;;;;;;;20.73;100.00;99933.50;6369707;27;20561;-73
2023/07/06 10:53:32;;;;;;;6.50;3.53;;;;;;;20.86;100.00;99940.97;6371146;27;20055;-73
2023/07/06 10:56:40;;;;;;;10.05;4.63;;;;;;;20.79;100.00;99939.13;6371599;27;20058;-74
2023/07/06 10:59:48;;;;;;;7.25;4.30;;;;;;;20.70;100.00;99941.75;6369864;28;20086;-75
2023/07/06 11:02:54;;;;;;;8.77;4.57;;;;;;;21.20;100.00;99939.19;6370096;28;20050;-72
2023/07/06 11:06:07;;;;;;;14.20;5.07;;;;;;;20.90;100.00;99936.19;6369507;28;20063;-74
2023/07/06 11:09:08;;;;;;;7.85;4.63;;;;;;;21.01;100.00;99942.97;6369408;28;20055;-74
2023/07/06 11:12:18;;;;;;;10.40;5.07;;;;;;;21.28;100.00;99941.84;6370099;28;20050;-74
2023/07/06 11:15:26;;;;;;;7.40;4.78;;;;;;;21.37;100.00;99937.34;6371125;27;20103;-74
2023/07/06 11:18:53;;;;;;;7.93;4.90;;;;;;;21.57;100.00;99933.38;6369512;28;20059;-74
2023/07/06 11:21:59;;;;;;;8.45;4.90;;;;;;;21.71;100.00;99927.38;6370476;28;20054;-73
2023/07/06 11:25:03;;;;;;;7.47;4.90;;;;;;;22.27;100.00;99922.09;6370722;28;20533;-73
2023/07/06 11:41:41;;;;;;;8.85;4.78;;;;;;;24.39;100.00;99912.50;6318576;27;20392;-71
2023/07/06 18:14:48;;;;;;;3.88;2.35;;;;;;;24.16;79.21;99899.31;5559572;28;20117;-68
2023/07/06 18:17:49;;;;;;;3.90;2.17;;;;;;;24.21;80.17;99898.75;6308727;28;20059;-68
2023/07/06 18:20:50;;;;;;;4.03;2.50;;;;;;;24.20;80.37;99905.91;6309402;28;20070;-70
2023/07/06 18:23:51;;;;;;;6.90;2.60;;;;;;;24.28;81.90;99902.34;6290443;28;20049;-70
2023/07/06 18:26:56;;;;;;;4.03;2.08;;;;;;;24.13;82.12;99913.84;6291005;28;20060;-70
2023/07/06 18:29:57;;;;;;;4.38;2.20;;;;;;;23.73;80.78;99918.56;6291360;28;20440;-70
2023/07/06 18:32:57;;;;;;;5.50;2.30;;;;;;;23.68;82.86;99922.78;6290486;28;20059;-70
2023/07/06 18:35:58;;;;;;;5.00;2.27;;;;;;;23.60;79.48;99934.38;6289450;28;20063;-69
2023/07/06 18:39:01;;;;;;;4.37;2.33;;;;;;;23.42;79.25;99939.19;6290283;28;20051;-69
2023/07/06 18:42:02;;;;;;;3.55;2.40;;;;;;;23.41;80.83;99945.50;6308480;28;20051;-68
2023/07/06 18:45:06;;;;;;;3.85;2.38;;;;;;;23.31;81.63;99946.59;6290854;28;20053;-71
2023/07/06 18:48:07;;;;;;;4.07;2.17;;;;;;;23.07;80.96;99954.78;6307364;28;20109;-68
2023/07/06 18:51:07;;;;;;;4.40;2.70;;;;;;;22.99;81.87;99960.13;6289821;28;20446;-68
2023/07/06 18:54:08;;;;;;;6.33;2.70;;;;;;;22.93;81.12;99956.31;6307716;28;20087;-68
2023/07/06 18:57:12;;;;;;;6.17;2.47;;;;;;;22.82;80.00;99957.56;6290799;28;20105;-70
2023/07/06 19:00:13;;;;;;;3.50;2.33;;;;;;;22.65;79.63;99962.16;6290336;28;20335;-68
2023/07/06 19:03:14;;;;;;;4.35;2.78;;;;;;;22.58;79.38;99960.34;6291175;28;20056;-70
2023/07/06 19:06:15;;;;;;;4.43;2.50;;;;;;;22.66;79.04;99965.63;6292562;28;20494;-70
2023/07/06 19:09:16;;;;;;;3.60;2.33;;;;;;;22.56;78.75;99970.34;6308375;28;20060;-68
2023/07/06 19:12:16;;;;;;;6.27;2.43;;;;;;;22.37;79.58;99971.59;6290675;28;20532;-67
2023/07/06 19:15:17;;;;;;;5.63;2.40;;;;;;;22.45;79.19;99975.03;6289595;28;20067;-70
2023/07/06 19:18:18;;;;;;;5.13;2.83;;;;;;;22.36;81.22;99976.03;6291163;28;20102;-71
2023/07/06 19:21:19;;;;;;;6.53;2.57;;;;;;;22.30;79.71;99982.91;6308716;28;20079;-70
2023/07/06 19:24:19;;;;;;;7.67;2.43;;;;;;;22.08;79.92;99983.59;6289400;28;20063;-70
2023/07/06 19:27:20;;;;;;;6.83;2.60;;;;;;;22.07;79.78;99980.13;6308680;28;20052;-68
2023/07/06 19:30:22;;;;;;;;;;;;;;;22.04;82.45;99979.63;6309480;28;20044;-72
2023/07/06 19:33:23;;;;;;;3.05;2.28;;;;;;;22.16;80.66;99983.56;6292050;28;19974;-70
2023/07/06 19:36:24;;;;;;;4.78;2.67;;;;;;;22.11;79.89;99977.94;6290046;28;20489;-70
2023/07/06 19:39:25;;;;;;;6.55;2.25;;;;;;;21.93;81.30;99983.47;6292432;28;20107;-68
2023/07/06 19:42:33;;;;;;;4.27;2.67;;;;;;;21.87;81.32;99981.50;6309177;28;20496;-71
2023/07/06 19:45:34;;;;;;;5.32;2.60;;;;;;;21.66;81.94;99976.69;6311034;28;20052;-70
2023/07/06 19:48:36;;;;;;;7.70;2.88;;;;;;;21.75;83.78;99983.66;6310611;28;20052;-70
2023/07/06 19:51:37;;;;;;;5.25;2.60;;;;;;;21.71;84.09;99992.94;6311317;28;20052;-69
2023/07/06 19:54:38;;;;;;;4.77;2.70;;;;;;;21.74;85.34;99992.59;6313765;28;20060;-69
2023/07/06 19:57:40;;;;;;;4.18;2.40;;;;;;;21.86;85.65;99998.41;6296106;28;20323;-70
2023/07/06 20:00:41;;;;;;;5.35;2.50;;;;;;;21.85;83.54;99997.59;6295343;28;20051;-71
2023/07/06 20:03:42;;;;;;;4.30;2.67;;;;;;;21.84;84.39;99985.28;6312586;28;20044;-70
2023/07/06 20:06:45;;;;;;;4.97;2.72;;;;;;;21.66;84.39;99992.59;6313463;28;20076;-70
2023/07/06 20:09:48;;;;;;;4.40;2.40;;;;;;;21.68;83.40;99983.50;6314109;28;20098;-70
2023/07/06 20:12:48;;;;;;;3.80;2.72;;;;;;;21.63;84.69;99985.81;6297973;28;20055;-71
2023/07/06 20:15:49;;;;;;;4.80;2.53;;;;;;;21.49;82.69;99979.34;6314026;28;20474;-71
2023/07/06 20:18:50;;;;;;;5.10;2.60;;;;;;;21.42;84.38;99983.66;6294542;28;20277;-71
2023/07/06 20:21:52;;;;;;;3.60;2.43;;;;;;;21.33;83.24;99980.16;6313958;28;20277;-70
2023/07/06 20:24:53;;;;;;;3.85;2.35;;;;;;;21.51;82.62;99974.69;6295792;28;20819;-70
2023/07/06 20:27:54;;;;;;;3.72;2.50;;;;;;;21.37;82.95;99969.19;6294091;28;20048;-70
2023/07/06 20:31:00;;;;;;;4.63;2.50;;;;;;;21.43;84.35;99971.22;6311137;28;20563;-71
2023/07/06 20:34:01;;;;;;;4.28;2.50;;;;;;;21.23;83.28;99968.00;6293580;28;20053;-71
2023/07/06 20:37:02;;;;;;;3.33;2.47;;;;;;;21.36;83.02;99967.56;6292927;28;20055;-70
2023/07/06 20:40:03;;;;;;;2.77;2.03;;;;;;;21.10;83.13;99961.38;6294018;28;20048;-70
2023/07/06 20:43:05;;;;;;;3.00;2.17;;;;;;;21.12;83.92;99962.03;6294052;28;20062;-69
2023/07/06 20:46:06;;;;;;;3.10;2.30;;;;;;;21.05;83.24;99958.41;6293317;28;20056;-69
2023/07/06 20:49:09;;;;;;;3.37;2.43;;;;;;;21.08;83.63;99957.22;6311230;28;20048;-69
2023/07/06 20:52:11;;;;;;;4.43;2.42;;;;;;;21.04;83.36;99962.03;6292729;28;20052;-70
2023/07/06 20:55:14;;;;;;;7.72;2.53;;;;;;;20.88;84.09;99962.03;6316665;28;20044;-70
2023/07/06 20:58:15;;;;;;;2.88;2.58;;;;;;;20.95;83.98;99964.84;6310772;28;20058;-70
2023/07/06 21:01:18;;;;;;;3.37;2.03;;;;;;;20.88;84.56;99957.53;6298304;28;20048;-70
2023/07/06 21:04:19;;;;;;;3.15;2.17;;;;;;;20.78;83.67;99959.50;6290006;28;20561;-70
2023/07/06 21:07:22;;;;;;;4.60;2.50;;;;;;;20.81;83.83;99953.88;6306153;28;20048;-71
2023/07/06 21:10:24;;;;;;;4.05;2.35;;;;;;;20.87;84.34;99958.53;6320637;28;20044;-68
2023/07/06 21:13:25;;;;;;;3.20;2.25;;;;;;;20.73;85.75;99961.81;6308027;28;20106;-68
2023/07/06 21:16:41;;;;;;;4.00;2.37;;;;;;;20.60;86.77;99959.63;6299137;28;20502;-68
2023/07/06 21:19:44;;;;;;;3.22;2.30;;;;;;;20.57;87.76;99967.03;6303185;28;20036;-71